Time;durP1;ratioP1;P1;durP2;ratioP2;P2;SDS_P1;SDS_P2;PMS_P1;PMS_P2;Temp;Humidity;BMP_temperature;BMP_pressure;BME280_temperature;BME280_humidity;BME280_pressure;Samples;Min_cycle;Max_cycle;Signal;HPM_P1;HPM_P2
2023/05/01 03:01:16;;;;;;;11.02;5.13;;;8.40;99.90;;;;;;5602122;23;20156;-81
2023/05/01 03:03:41;;;;;;;10.82;5.28;;;8.30;99.90;;;;;;4959410;28;20103;-82
2023/05/01 03:06:07;;;;;;;10.27;5.30;;;8.30;99.90;;;;;;4976266;28;20035;-80
2023/05/01 03:08:32;;;;;;;12.02;5.07;;;8.30;99.90;;;;;;4976088;28;20042;-81
2023/05/01 03:10:58;;;;;;;12.10;5.25;;;8.30;99.90;;;;;;4961697;28;20047;-82
2023/05/01 03:13:24;;;;;;;9.45;4.72;;;8.30;99.90;;;;;;4974911;28;20419;-79
2023/05/01 03:15:50;;;;;;;10.15;5.20;;;8.30;99.90;;;;;;4975119;28;20082;-83
2023/05/01 03:18:15;;;;;;;8.52;5.30;;;8.20;99.90;;;;;;4976260;28;20039;-82
2023/05/01 03:20:53;;;;;;;12.27;5.00;;;8.20;99.90;;;;;;4975064;28;20156;-80
2023/05/01 03:23:18;;;;;;;8.95;5.00;;;8.20;99.90;;;;;;4975837;28;20122;-82
2023/05/01 03:25:44;;;;;;;8.68;4.28;;;8.20;99.90;;;;;;4958057;28;20131;-80
2023/05/01 03:28:10;;;;;;;10.43;4.53;;;8.20;99.90;;;;;;4955644;29;20043;-82
2023/05/01 03:30:36;;;;;;;9.82;5.25;;;8.20;99.90;;;;;;4956792;28;20118;-79
2023/05/01 03:33:01;;;;;;;10.93;5.05;;;8.20;99.90;;;;;;4955488;29;20043;-82
2023/05/01 03:35:28;;;;;;;10.85;5.00;;;8.10;99.90;;;;;;4955814;29;20081;-79
2023/05/01 03:37:54;;;;;;;9.02;4.90;;;8.10;99.90;;;;;;4955401;29;20371;-78
2023/05/01 03:40:20;;;;;;;13.43;5.43;;;8.10;99.90;;;;;;4955975;29;20047;-79
2023/05/01 03:42:45;;;;;;;8.57;5.18;;;8.10;99.90;;;;;;4956488;29;20054;-81
2023/05/01 03:45:11;;;;;;;8.77;4.70;;;8.10;99.90;;;;;;4955341;29;20035;-83
2023/05/01 03:47:37;;;;;;;10.00;5.00;;;8.00;99.90;;;;;;4955145;28;20115;-78
2023/05/01 03:50:03;;;;;;;9.95;5.30;;;8.00;99.90;;;;;;4955340;29;20463;-83
2023/05/01 03:52:28;;;;;;;12.90;4.70;;;8.00;99.90;;;;;;4956214;28;20061;-80
2023/05/01 03:54:54;;;;;;;10.02;4.85;;;7.90;99.90;;;;;;4955047;29;20176;-79
2023/05/01 03:57:19;;;;;;;9.50;4.68;;;7.90;99.90;;;;;;4954850;29;20039;-81
2023/05/01 03:59:46;;;;;;;11.95;5.15;;;7.90;99.90;;;;;;4954856;29;20054;-84
2023/05/01 04:02:11;;;;;;;12.32;5.78;;;7.90;99.90;;;;;;4938438;29;20130;-81
2023/05/01 04:04:37;;;;;;;9.25;4.65;;;7.80;99.90;;;;;;4939101;29;20085;-83
2023/05/01 04:07:04;;;;;;;8.27;5.10;;;7.80;99.90;;;;;;4939267;29;20046;-81
2023/05/01 04:09:30;;;;;;;9.65;5.32;;;7.80;99.90;;;;;;4954995;29;20399;-81
2023/05/01 04:11:56;;;;;;;12.27;6.47;;;7.80;99.90;;;;;;4955756;28;20062;-83
2023/05/01 04:14:22;;;;;;;11.57;5.75;;;7.70;99.90;;;;;;4956281;28;20039;-81
2023/05/01 04:16:48;;;;;;;13.05;5.20;;;7.70;99.90;;;;;;4954545;29;20074;-79
2023/05/01 04:19:14;;;;;;;14.02;5.80;;;7.70;99.90;;;;;;4955257;29;20039;-83
2023/05/01 04:21:40;;;;;;;16.10;5.80;;;7.60;99.90;;;;;;4954477;29;20482;-78
2023/05/01 04:24:06;;;;;;;10.48;5.82;;;7.60;99.90;;;;;;4954644;29;20039;-82
2023/05/01 04:26:31;;;;;;;12.73;5.80;;;7.70;99.90;;;;;;4954798;29;20111;-78
2023/05/01 04:28:57;;;;;;;13.02;6.07;;;7.60;99.90;;;;;;4954308;29;20090;-81
2023/05/01 04:31:23;;;;;;;14.63;5.47;;;7.60;99.90;;;;;;4954963;29;20102;-78
2023/05/01 04:33:48;;;;;;;8.90;5.20;;;7.70;99.90;;;;;;4954822;29;20042;-83
2023/05/01 04:36:14;;;;;;;15.27;5.53;;;7.70;99.90;;;;;;4955234;29;20051;-82
2023/05/01 04:38:40;;;;;;;12.52;5.65;;;7.70;99.90;;;;;;4955180;29;20043;-82
2023/05/01 04:41:05;;;;;;;11.27;5.68;;;7.70;99.90;;;;;;4955338;29;20126;-82
2023/05/01 04:43:31;;;;;;;12.80;5.30;;;7.70;99.90;;;;;;4955778;29;20054;-80
2023/05/01 04:45:57;;;;;;;11.65;5.65;;;7.80;99.90;;;;;;4938660;29;20047;-77
2023/05/01 04:48:22;;;;;;;16.55;7.22;;;7.80;99.90;;;;;;4954186;29;20097;-81
2023/05/01 04:50:48;;;;;;;14.07;6.13;;;7.80;99.90;;;;;;4954604;29;20044;-78
2023/05/01 04:53:14;;;;;;;11.48;5.68;;;7.80;99.90;;;;;;4954257;29;20039;-81
2023/05/01 04:55:39;;;;;;;10.00;5.32;;;7.90;99.90;;;;;;4938254;29;20036;-80
2023/05/01 04:58:05;;;;;;;14.10;6.63;;;7.80;99.90;;;;;;4953978;29;20042;-79
2023/05/01 05:00:31;;;;;;;20.77;7.32;;;7.90;99.90;;;;;;4954871;28;20093;-78
2023/05/01 05:02:57;;;;;;;10.98;5.70;;;7.90;99.90;;;;;;4956084;28;20092;-78
2023/05/01 05:05:22;;;;;;;24.77;6.75;;;7.90;99.90;;;;;;4953976;29;20078;-80
2023/05/01 05:07:48;;;;;;;11.82;5.65;;;8.00;99.90;;;;;;4955916;28;20058;-80
2023/05/01 05:10:14;;;;;;;15.77;6.18;;;8.00;99.90;;;;;;4953767;29;20044;-84
2023/05/01 05:12:39;;;;;;;13.20;6.07;;;8.10;99.90;;;;;;4954127;29;20058;-82
2023/05/01 05:15:05;;;;;;;12.20;5.63;;;8.10;99.90;;;;;;4953933;29;20049;-82
2023/05/01 05:17:31;;;;;;;11.20;5.78;;;8.20;99.90;;;;;;4939530;28;20054;-81
2023/05/01 05:19:57;;;;;;;11.00;5.60;;;8.20;99.90;;;;;;4973013;28;20046;-81
2023/05/01 05:22:24;;;;;;;10.20;5.45;;;8.30;99.90;;;;;;4972805;28;20051;-80
2023/05/01 05:25:02;;;;;;;16.33;6.65;;;8.30;99.90;;;;;;4973571;28;20054;-82
2023/05/01 05:27:29;;;;;;;10.02;5.78;;;8.40;99.90;;;;;;4972123;28;20451;-81
2023/05/01 05:29:55;;;;;;;12.25;6.07;;;8.40;99.90;;;;;;4973113;28;20166;-80
2023/05/01 05:32:21;;;;;;;13.18;5.93;;;8.50;99.90;;;;;;4974706;28;20122;-80
2023/05/01 05:34:46;;;;;;;12.07;6.00;;;8.50;99.90;;;;;;4973389;28;20039;-80
2023/05/01 05:37:12;;;;;;;17.63;6.95;;;8.60;99.90;;;;;;4972762;28;20494;-80
2023/05/01 05:39:38;;;;;;;13.00;6.20;;;8.60;99.90;;;;;;4974550;28;20050;-81
2023/05/01 05:42:03;;;;;;;9.75;5.63;;;8.70;99.90;;;;;;4973479;28;20041;-82
2023/05/01 05:44:30;;;;;;;11.88;5.80;;;8.80;99.90;;;;;;4973056;28;20145;-82
2023/05/01 05:46:56;;;;;;;11.60;6.13;;;8.80;99.90;;;;;;4974486;28;20055;-80
2023/05/01 05:49:21;;;;;;;13.10;6.72;;;8.90;99.90;;;;;;4973930;28;20062;-82
2023/05/01 05:51:47;;;;;;;16.08;6.10;;;8.90;99.90;;;;;;4973317;28;20047;-82
2023/05/01 05:54:13;;;;;;;13.55;6.90;;;9.00;99.90;;;;;;4973636;28;20046;-84
2023/05/01 05:56:38;;;;;;;14.93;6.10;;;9.00;99.90;;;;;;4974351;28;20542;-81
2023/05/01 05:59:05;;;;;;;10.50;5.65;;;9.00;99.90;;;;;;4972998;28;20034;-80
2023/05/01 06:01:31;;;;;;;17.65;6.45;;;9.10;99.90;;;;;;4973923;28;20050;-81
2023/05/01 06:03:57;;;;;;;11.32;5.88;;;9.10;99.90;;;;;;4973548;28;20153;-81
2023/05/01 06:06:23;;;;;;;16.30;6.53;;;9.20;99.90;;;;;;4973315;28;20150;-81
2023/05/01 06:08:49;;;;;;;13.88;5.78;;;9.20;99.90;;;;;;4972785;28;20089;-83
2023/05/01 06:11:15;;;;;;;11.55;6.20;;;9.20;99.90;;;;;;4973528;28;20035;-81
2023/05/01 06:13:40;;;;;;;12.38;6.07;;;9.30;99.90;;;;;;4977669;28;20478;-80
2023/05/01 06:16:06;;;;;;;12.38;6.43;;;9.30;99.90;;;;;;4976668;28;20181;-81
2023/05/01 06:18:32;;;;;;;13.73;5.65;;;9.40;99.90;;;;;;4977216;28;20046;-79
2023/05/01 06:20:58;;;;;;;12.82;5.93;;;9.40;99.90;;;;;;4977163;28;20436;-82
2023/05/01 06:23:24;;;;;;;13.40;5.95;;;9.50;99.90;;;;;;4976533;28;20047;-82
2023/05/01 06:25:50;;;;;;;11.70;5.97;;;9.50;99.90;;;;;;4975910;28;20470;-82
2023/05/01 06:28:16;;;;;;;15.02;6.82;;;9.50;99.90;;;;;;4976249;28;20125;-80
2023/05/01 06:30:42;;;;;;;12.90;6.72;;;9.50;99.90;;;;;;4976102;28;20043;-80
2023/05/01 06:33:09;;;;;;;11.85;5.72;;;9.60;99.90;;;;;;4976282;28;20101;-78
2023/05/01 06:35:37;;;;;;;9.73;5.93;;;9.60;99.90;;;;;;4975728;28;20125;-77
2023/05/01 06:38:03;;;;;;;11.10;6.10;;;9.60;99.90;;;;;;4976755;28;20134;-79
2023/05/01 06:40:30;;;;;;;13.63;6.15;;;9.70;99.90;;;;;;4977037;28;20118;-80
2023/05/01 06:42:56;;;;;;;14.32;6.93;;;9.70;99.90;;;;;;4959611;28;20083;-77
2023/05/01 06:45:22;;;;;;;13.65;6.18;;;9.70;99.90;;;;;;4976678;28;20038;-79
2023/05/01 06:47:48;;;;;;;14.60;6.45;;;9.80;99.90;;;;;;4976714;28;20462;-80
2023/05/01 06:50:14;;;;;;;10.90;6.07;;;9.80;99.90;;;;;;4975978;28;20074;-82
2023/05/01 06:52:40;;;;;;;10.18;5.78;;;9.90;99.90;;;;;;4976001;28;20082;-82
2023/05/01 06:55:06;;;;;;;13.32;6.00;;;9.90;99.90;;;;;;4976188;28;20051;-82
2023/05/01 06:57:32;;;;;;;11.20;6.35;;;9.90;99.90;;;;;;4960080;28;20042;-83
2023/05/01 06:59:57;;;;;;;12.30;6.25;;;10.00;99.90;;;;;;4959799;28;20047;-81
2023/05/01 07:02:23;;;;;;;11.88;6.22;;;10.00;99.90;;;;;;4975363;28;20096;-83
2023/05/01 07:04:49;;;;;;;13.48;6.13;;;10.10;99.90;;;;;;4975455;28;20406;-84
2023/05/01 07:07:14;;;;;;;15.88;6.45;;;10.20;99.90;;;;;;4975336;28;20074;-83
2023/05/01 07:09:40;;;;;;;11.57;5.85;;;10.20;99.90;;;;;;4975200;28;20046;-82
2023/05/01 07:12:06;;;;;;;11.55;5.68;;;10.30;99.90;;;;;;4974907;28;20378;-81
2023/05/01 07:14:33;;;;;;;12.50;6.07;;;10.30;99.90;;;;;;4975471;28;20049;-80
2023/05/01 07:16:59;;;;;;;11.63;5.90;;;10.40;99.90;;;;;;4974783;28;20046;-80
2023/05/01 07:19:25;;;;;;;11.45;5.72;;;10.50;99.90;;;;;;4974885;28;20039;-81
2023/05/01 07:21:52;;;;;;;15.73;7.93;;;10.50;99.90;;;;;;4975323;28;20057;-79
2023/05/01 07:24:19;;;;;;;13.00;6.53;;;10.60;99.90;;;;;;4976247;28;20146;-83
2023/05/01 07:26:44;;;;;;;10.25;5.97;;;10.70;99.90;;;;;;4974669;28;20486;-80
2023/05/01 07:29:12;;;;;;;13.55;5.90;;;10.80;99.90;;;;;;4976337;28;20035;-82
2023/05/01 07:31:38;;;;;;;14.98;6.32;;;10.80;99.90;;;;;;4958900;28;20078;-83
2023/05/01 07:34:03;;;;;;;12.02;6.03;;;10.90;99.90;;;;;;4974995;28;20138;-82
2023/05/01 07:36:29;;;;;;;12.60;6.00;;;11.00;99.90;;;;;;4975351;28;20035;-82
2023/05/01 07:38:56;;;;;;;9.93;6.00;;;11.10;99.90;;;;;;4957179;28;20130;-80
2023/05/01 07:41:24;;;;;;;11.75;5.70;;;11.20;99.90;;;;;;4955915;28;20058;-79
2023/05/01 07:43:50;;;;;;;12.38;5.68;;;11.30;99.90;;;;;;4955346;29;20049;-81
2023/05/01 07:46:15;;;;;;;10.05;5.00;;;11.40;99.90;;;;;;4956455;28;20051;-83
2023/05/01 07:48:41;;;;;;;13.43;5.70;;;11.50;99.90;;;;;;4954980;29;20044;-82
2023/05/01 07:51:07;;;;;;;11.68;5.60;;;11.60;99.90;;;;;;4956502;28;20155;-80
2023/05/01 07:53:33;;;;;;;10.52;5.50;;;11.70;99.90;;;;;;4955292;29;20047;-81
2023/05/01 07:56:08;;;;;;;12.63;5.72;;;11.80;99.90;;;;;;4956586;28;20038;-79
2023/05/01 07:58:35;;;;;;;10.00;5.03;;;11.90;99.90;;;;;;4955167;28;20043;-80
2023/05/01 08:01:02;;;;;;;11.90;5.20;;;12.10;99.90;;;;;;4955350;28;20395;-81
2023/05/01 08:03:31;;;;;;;11.50;5.38;;;12.20;99.90;;;;;;4939586;29;20047;-80
2023/05/01 08:05:57;;;;;;;13.95;4.97;;;12.30;99.90;;;;;;4954920;29;20051;-79
2023/05/01 08:08:23;;;;;;;9.68;5.18;;;12.40;99.90;;;;;;4955084;29;20375;-82
2023/05/01 08:10:51;;;;;;;10.10;4.75;;;12.50;99.90;;;;;;4956174;28;20050;-83
2023/05/01 08:13:17;;;;;;;12.75;4.60;;;12.60;99.90;;;;;;4939422;29;20046;-84
2023/05/01 08:15:43;;;;;;;10.52;4.70;;;12.80;99.90;;;;;;4956350;28;20488;-84
2023/05/01 08:18:09;;;;;;;9.30;4.70;;;12.80;99.90;;;;;;4955443;29;20126;-81
2023/05/01 08:20:35;;;;;;;12.32;5.18;;;12.90;99.90;;;;;;4955327;28;20155;-83
2023/05/01 08:23:01;;;;;;;8.50;4.60;;;13.00;99.90;;;;;;4955565;29;20110;-84
2023/05/01 08:25:27;;;;;;;10.00;5.00;;;13.10;99.90;;;;;;4954938;29;20046;-82
2023/05/01 08:27:52;;;;;;;9.07;4.20;;;13.30;99.90;;;;;;4956426;28;20047;-83
2023/05/01 08:30:18;;;;;;;10.38;4.18;;;13.40;99.90;;;;;;4954455;28;20415;-83
2023/05/01 08:32:43;;;;;;;11.65;5.45;;;13.50;99.90;;;;;;4971934;28;20038;-82
2023/05/01 08:35:09;;;;;;;11.20;4.00;;;13.70;99.90;;;;;;4973302;28;20082;-81
2023/05/01 08:37:35;;;;;;;8.45;3.95;;;13.90;99.90;;;;;;4975424;28;20139;-85
2023/05/01 08:40:07;;;;;;;8.60;4.00;;;14.10;99.90;;;;;;4975454;28;20375;-85
2023/05/01 08:42:38;;;;;;;7.70;4.45;;;14.50;99.90;;;;;;4957724;28;20046;-82
2023/05/01 08:45:09;;;;;;;10.23;3.92;;;14.70;99.90;;;;;;4958166;28;20195;-85
2023/05/01 08:47:39;;;;;;;11.23;4.20;;;14.90;99.90;;;;;;4958116;28;20058;-81
2023/05/01 08:50:16;;;;;;;6.85;3.95;;;15.40;99.90;;;;;;4975128;28;20079;-83
2023/05/01 08:52:42;;;;;;;8.05;4.45;;;15.90;99.90;;;;;;4957390;28;20509;-83
2023/05/01 08:55:14;;;;;;;8.25;3.90;;;16.20;99.90;;;;;;4973307;28;20045;-80
2023/05/01 08:57:47;;;;;;;12.57;4.05;;;16.40;99.90;;;;;;4957124;28;20478;-83
2023/05/01 09:00:18;;;;;;;11.02;3.78;;;16.60;99.90;;;;;;4973527;28;20386;-76
2023/05/01 09:02:47;;;;;;;8.70;4.25;;;17.10;99.90;;;;;;4973190;28;20538;-81
2023/05/01 09:05:14;;;;;;;10.55;3.95;;;17.60;99.90;;;;;;4974947;28;20046;-80
2023/05/01 09:07:41;;;;;;;9.70;4.88;;;18.00;99.90;;;;;;4972971;28;20046;-81
2023/05/01 09:10:07;;;;;;;8.80;3.83;;;17.90;99.90;;;;;;4973529;28;20526;-82
2023/05/01 09:12:36;;;;;;;10.75;4.10;;;17.60;99.90;;;;;;4973022;28;20074;-81
2023/05/01 09:15:03;;;;;;;8.13;2.67;;;17.50;99.90;;;;;;4973852;28;20038;-81
2023/05/01 09:17:30;;;;;;;6.47;2.10;;;17.30;99.90;;;;;;4973342;28;20038;-80
2023/05/01 09:19:56;;;;;;;6.45;2.50;;;17.40;99.90;;;;;;4975403;28;20047;-81
2023/05/01 09:22:22;;;;;;;5.82;2.70;;;17.80;99.90;;;;;;4972900;28;20043;-82
2023/05/01 09:24:48;;;;;;;6.10;2.63;;;18.00;99.90;;;;;;4973477;28;20054;-80
2023/05/01 09:27:14;;;;;;;4.18;2.17;;;18.00;99.90;;;;;;4974598;28;20038;-80
2023/05/01 09:29:46;;;;;;;6.72;2.60;;;18.00;99.90;;;;;;4974595;28;20050;-80
2023/05/01 09:32:13;;;;;;;5.78;2.85;;;17.90;99.90;;;;;;4973145;28;20093;-85
2023/05/01 09:34:39;;;;;;;5.70;2.80;;;18.00;99.90;;;;;;4972877;28;20054;-83
2023/05/01 09:37:05;;;;;;;5.43;2.65;;;18.10;99.90;;;;;;4974929;28;20069;-84
2023/05/01 09:39:31;;;;;;;7.32;2.75;;;18.10;99.90;;;;;;4973342;28;20043;-80
2023/05/01 09:41:56;;;;;;;4.85;2.50;;;18.10;99.90;;;;;;4973444;28;20401;-80
2023/05/01 09:44:22;;;;;;;6.35;2.38;;;18.20;99.90;;;;;;4962439;28;20050;-82
2023/05/01 09:46:48;;;;;;;5.57;2.08;;;18.40;99.90;;;;;;4979571;28;20087;-80
2023/05/01 09:49:15;;;;;;;6.15;2.20;;;18.60;99.90;;;;;;4984288;28;20098;-77
2023/05/01 09:51:41;;;;;;;6.75;2.10;;;19.00;99.90;;;;;;4989099;28;20073;-79
2023/05/01 09:54:18;;;;;;;7.18;2.72;;;19.30;99.90;;;;;;4988720;28;20054;-78
2023/05/01 09:56:47;;;;;;;6.32;2.30;;;19.90;99.90;;;;;;4981937;28;20113;-81
2023/05/01 09:59:19;;;;;;;7.65;2.60;;;20.30;99.90;;;;;;4977612;28;20085;-81
2023/05/01 10:01:47;;;;;;;5.90;2.67;;;20.30;99.90;;;;;;4977202;28;20047;-82
2023/05/01 10:04:13;;;;;;;6.07;2.50;;;19.90;99.90;;;;;;4978471;28;20054;-83
2023/05/01 10:06:39;;;;;;;8.93;2.53;;;19.50;99.90;;;;;;4977399;28;20050;-83
2023/05/01 10:09:09;;;;;;;6.28;2.50;;;19.30;99.90;;;;;;4977040;28;20049;-80
2023/05/01 10:11:48;;;;;;;7.13;2.67;;;19.60;99.90;;;;;;4978252;28;20109;-78
2023/05/01 10:14:13;;;;;;;8.90;2.67;;;19.60;99.50;;;;;;4976756;28;20047;-80
2023/05/01 10:16:39;;;;;;;9.43;2.60;;;19.20;99.70;;;;;;4976501;28;20031;-79
2023/05/01 10:19:05;;;;;;;7.38;2.00;;;18.90;99.90;;;;;;4976409;28;20113;-78
2023/05/01 10:21:32;;;;;;;4.70;2.10;;;18.70;99.90;;;;;;4976346;28;20098;-80
2023/05/01 10:23:59;;;;;;;5.20;2.42;;;18.60;99.80;;;;;;4977676;28;20046;-81
2023/05/01 10:26:26;;;;;;;5.13;2.00;;;18.50;99.90;;;;;;4959991;28;20047;-84
2023/05/01 10:28:51;;;;;;;7.00;2.83;;;18.60;99.90;;;;;;4976158;28;20134;-80
2023/05/01 10:31:17;;;;;;;4.68;2.10;;;18.60;99.90;;;;;;4975631;28;20125;-78
2023/05/01 10:33:46;;;;;;;4.93;2.38;;;18.60;99.90;;;;;;4960004;28;20077;-80
2023/05/01 10:36:18;;;;;;;6.45;2.50;;;18.80;99.70;;;;;;4976643;28;20113;-81
2023/05/01 10:38:47;;;;;;;6.55;2.97;;;18.90;99.90;;;;;;4977285;28;20043;-80
2023/05/01 10:41:16;;;;;;;6.57;2.78;;;18.80;99.70;;;;;;4975925;28;20051;-80
2023/05/01 10:43:42;;;;;;;4.47;2.30;;;18.80;99.80;;;;;;4976066;28;20043;-84
2023/05/01 10:46:20;;;;;;;5.07;1.40;;;19.00;99.00;;;;;;4977309;28;20085;-81
2023/05/01 10:48:45;;;;;;;3.50;1.63;;;19.30;99.20;;;;;;4959728;28;20094;-81
2023/05/01 10:51:20;;;;;;;5.85;2.10;;;19.60;99.20;;;;;;4976295;28;20483;-80
2023/05/01 10:54:05;;;;;;;3.90;1.93;;;19.70;97.90;;;;;;4975883;28;20039;-79
2023/05/01 10:56:31;;;;;;;;;;;19.50;98.00;;;;;;4977646;28;20394;-75
2023/05/01 10:59:03;;;;;;;3.25;1.60;;;19.30;98.70;;;;;;4976141;28;19945;-80
2023/05/01 11:01:55;;;;;;;5.57;2.35;;;19.40;98.20;;;;;;4977015;28;20513;-86
2023/05/01 11:04:21;;;;;;;6.30;2.65;;;19.50;98.90;;;;;;4957893;28;20064;-84
2023/05/01 11:07:04;;;;;;;4.57;2.00;;;19.60;98.40;;;;;;4977163;28;20394;-77
2023/05/01 11:09:40;;;;;;;5.85;2.60;;;19.80;98.00;;;;;;4976660;28;20173;-87
2023/05/01 11:12:07;;;;;;;5.70;1.77;;;20.00;98.30;;;;;;4974963;28;20058;-79
2023/05/01 11:14:56;;;;;;;5.90;2.22;;;20.00;97.00;;;;;;4976614;28;20129;-79
2023/05/01 11:17:42;;;;;;;4.28;1.38;;;20.10;96.50;;;;;;4936595;29;20044;-75
2023/05/01 11:20:27;;;;;;;7.07;2.08;;;20.00;95.50;;;;;;4936253;29;20484;-80
2023/05/01 11:22:55;;;;;;;3.92;1.65;;;19.90;95.50;;;;;;4936572;29;20079;-80
2023/05/01 11:25:26;;;;;;;4.60;2.00;;;19.60;95.70;;;;;;4952781;29;20083;-79
2023/05/01 11:27:57;;;;;;;3.58;1.73;;;19.50;95.30;;;;;;4936573;29;20062;-82
2023/05/01 11:30:23;;;;;;;4.78;1.80;;;19.30;95.40;;;;;;4936125;29;20059;-78
2023/05/01 11:32:50;;;;;;;5.32;2.08;;;19.20;95.60;;;;;;4936344;29;20102;-77
2023/05/01 11:35:18;;;;;;;4.57;2.00;;;19.20;95.80;;;;;;4937474;29;20044;-80
2023/05/01 11:37:45;;;;;;;4.68;1.80;;;19.20;96.50;;;;;;4936540;29;20040;-77
2023/05/01 11:40:24;;;;;;;4.85;1.80;;;19.20;96.80;;;;;;4935942;29;20043;-74
2023/05/01 11:42:59;;;;;;;5.28;1.88;;;19.20;96.10;;;;;;4936316;29;20055;-79
2023/05/01 11:45:25;;;;;;;4.35;1.67;;;19.20;96.60;;;;;;4936264;29;20047;-78
2023/05/01 11:47:51;;;;;;;5.55;2.03;;;19.30;97.10;;;;;;4935909;29;20058;-81
2023/05/01 11:50:17;;;;;;;5.30;1.70;;;19.30;96.40;;;;;;4935728;29;20098;-82
2023/05/01 11:52:48;;;;;;;4.60;1.83;;;19.30;96.60;;;;;;4951690;29;20039;-83
2023/05/01 11:55:15;;;;;;;3.58;1.70;;;19.40;97.10;;;;;;4951976;29;20035;-79
2023/05/01 11:58:00;;;;;;;4.53;1.40;;;19.40;96.60;;;;;;4936130;29;20082;-82
2023/05/01 12:00:32;;;;;;;3.65;1.60;;;19.50;96.80;;;;;;4935368;29;20095;-80
2023/05/01 12:02:59;;;;;;;3.67;1.55;;;19.50;96.50;;;;;;4937617;29;20047;-79
2023/05/01 12:05:27;;;;;;;3.80;2.10;;;19.60;96.50;;;;;;4935705;29;20123;-79
2023/05/01 12:08:05;;;;;;;5.05;2.03;;;19.60;96.30;;;;;;4951807;29;20114;-80
2023/05/01 12:10:32;;;;;;;4.85;2.10;;;19.50;96.30;;;;;;4935876;29;20538;-79
2023/05/01 12:12:58;;;;;;;4.35;1.63;;;19.30;96.20;;;;;;4935932;29;20047;-82
2023/05/01 12:15:24;;;;;;;5.10;2.13;;;19.20;96.40;;;;;;4935531;29;20395;-82
2023/05/01 12:17:50;;;;;;;5.75;1.70;;;19.20;96.60;;;;;;4937228;29;20040;-81
2023/05/01 12:20:16;;;;;;;4.72;1.63;;;19.20;96.00;;;;;;4935631;29;20052;-78
2023/05/01 12:22:49;;;;;;;4.72;1.38;;;19.10;95.50;;;;;;4935562;29;20057;-79
2023/05/01 12:25:15;;;;;;;2.83;1.58;;;19.50;96.00;;;;;;4937503;29;20039;-79
2023/05/01 12:27:45;;;;;;;3.78;1.70;;;20.00;95.90;;;;;;4935263;29;20043;-77
2023/05/01 12:30:11;;;;;;;4.20;1.55;;;20.50;95.80;;;;;;4935244;29;20052;-80
2023/05/01 12:32:36;;;;;;;4.40;1.73;;;20.80;95.20;;;;;;4936401;29;20048;-82
2023/05/01 12:35:16;;;;;;;3.03;1.15;;;20.90;94.00;;;;;;4935286;29;20464;-81
2023/05/01 12:37:42;;;;;;;3.97;1.10;;;21.10;94.20;;;;;;4935288;29;20079;-76
2023/05/01 12:40:13;;;;;;;3.60;1.10;;;21.30;94.10;;;;;;4935376;29;20056;-78
2023/05/01 12:42:40;;;;;;;5.63;1.73;;;21.50;92.70;;;;;;4935074;29;20085;-81
2023/05/01 12:45:08;;;;;;;3.72;1.00;;;21.40;91.80;;;;;;4934931;29;20051;-81
2023/05/01 12:47:37;;;;;;;3.05;1.00;;;21.40;91.60;;;;;;4935278;29;20150;-77
2023/05/01 12:50:03;;;;;;;3.70;1.10;;;21.20;90.60;;;;;;4934926;29;20055;-79
2023/05/01 12:52:29;;;;;;;2.58;0.85;;;21.00;90.90;;;;;;4936166;29;20086;-79
2023/05/01 12:55:03;;;;;;;5.22;1.33;;;20.60;90.60;;;;;;4935027;29;20221;-79
2023/05/01 12:57:29;;;;;;;2.60;1.20;;;20.50;90.40;;;;;;4934960;29;20400;-79
2023/05/01 13:00:06;;;;;;;4.30;1.73;;;20.50;91.50;;;;;;4935269;29;20040;-80
2023/05/01 13:02:32;;;;;;;3.50;1.38;;;20.50;91.80;;;;;;4935081;29;20410;-78
2023/05/01 13:05:09;;;;;;;3.38;1.80;;;20.50;91.70;;;;;;4934495;29;20051;-81
2023/05/01 13:07:37;;;;;;;7.95;2.55;;;20.40;92.90;;;;;;4934866;29;20060;-81
2023/05/01 13:10:04;;;;;;;7.30;2.70;;;20.10;94.40;;;;;;4934434;29;20052;-80
2023/05/01 13:12:31;;;;;;;6.47;2.67;;;19.70;95.30;;;;;;4934802;29;20047;-79
2023/05/01 13:14:57;;;;;;;6.07;2.58;;;19.50;96.10;;;;;;4951174;29;20180;-77
2023/05/01 13:17:30;;;;;;;5.35;2.65;;;19.40;97.00;;;;;;4935987;29;20044;-78
2023/05/01 13:20:01;;;;;;;9.40;3.13;;;19.40;97.40;;;;;;4935094;29;20087;-82
2023/05/01 13:22:31;;;;;;;6.65;2.90;;;19.20;97.90;;;;;;4938453;29;20083;-79
2023/05/01 13:24:58;;;;;;;10.32;3.83;;;18.90;98.60;;;;;;4938908;29;20036;-74
2023/05/01 13:27:25;;;;;;;9.07;3.40;;;18.60;99.10;;;;;;4938727;29;20047;-81
2023/05/01 13:30:08;;;;;;;7.03;3.28;;;18.40;99.90;;;;;;4938789;29;20052;-81
2023/05/01 13:32:37;;;;;;;8.75;3.80;;;18.20;99.90;;;;;;4939282;29;20083;-81
2023/05/01 13:35:03;;;;;;;7.43;3.38;;;18.00;99.90;;;;;;4938759;29;20051;-82
2023/05/01 13:37:29;;;;;;;7.18;3.55;;;17.80;99.90;;;;;;4938982;29;20399;-81
2023/05/01 13:39:58;;;;;;;10.02;3.50;;;17.70;99.90;;;;;;4955031;29;20046;-81
2023/05/01 13:42:51;;;;;;;8.52;3.72;;;17.80;99.90;;;;;;4939757;29;20446;-83
2023/05/01 13:45:19;;;;;;;10.43;4.38;;;17.80;99.90;;;;;;4939058;29;20055;-79
2023/05/01 13:47:44;;;;;;;9.57;4.00;;;17.90;99.90;;;;;;4938818;29;20126;-83
2023/05/01 13:50:13;;;;;;;6.10;3.95;;;17.90;99.90;;;;;;4938499;29;20131;-78
2023/05/01 13:52:42;;;;;;;11.13;3.65;;;18.00;99.90;;;;;;4938395;29;20093;-81
2023/05/01 13:55:09;;;;;;;6.80;3.13;;;18.10;99.90;;;;;;4938743;29;20434;-79
2023/05/01 13:57:42;;;;;;;8.70;3.92;;;18.40;99.90;;;;;;4954342;29;20047;-79
2023/05/01 14:00:12;;;;;;;7.18;3.80;;;18.90;99.90;;;;;;4939347;29;20437;-80
2023/05/01 14:02:47;;;;;;;6.85;3.90;;;19.40;99.90;;;;;;4938133;29;20080;-79
2023/05/01 14:05:14;;;;;;;7.27;4.00;;;19.60;99.90;;;;;;4938400;29;20052;-78
2023/05/01 14:07:52;;;;;;;5.60;3.42;;;19.70;99.90;;;;;;4938744;29;20322;-80
2023/05/01 14:10:18;;;;;;;7.85;3.60;;;20.00;99.90;;;;;;4937914;29;20488;-78
2023/05/01 14:12:44;;;;;;;8.13;3.40;;;20.10;99.90;;;;;;4954225;29;20179;-82
2023/05/01 14:15:11;;;;;;;6.80;3.35;;;20.20;99.60;;;;;;4938264;29;20039;-81
2023/05/01 14:17:37;;;;;;;6.85;3.72;;;20.20;98.80;;;;;;4939560;29;20040;-82
2023/05/01 14:20:04;;;;;;;6.10;3.47;;;20.00;98.80;;;;;;4938114;29;20083;-82
2023/05/01 14:22:42;;;;;;;7.10;3.53;;;20.00;99.30;;;;;;4938028;29;20048;-79
2023/05/01 14:25:29;;;;;;;6.60;3.45;;;20.20;99.40;;;;;;4939061;29;20035;-83
2023/05/01 14:27:57;;;;;;;5.68;2.95;;;20.40;99.70;;;;;;4937160;29;20119;-74
2023/05/01 14:30:26;;;;;;;9.05;3.55;;;20.90;99.10;;;;;;4938299;29;20083;-74
2023/05/01 14:32:52;;;;;;;6.03;3.55;;;21.40;98.80;;;;;;4935633;29;20044;-72
2023/05/01 14:35:20;;;;;;;9.40;3.90;;;21.60;97.40;;;;;;4952910;29;20059;-73
2023/05/01 14:37:46;;;;;;;5.88;3.42;;;21.70;96.90;;;;;;4936852;29;20261;-75
2023/05/01 14:40:13;;;;;;;7.75;3.45;;;21.80;96.60;;;;;;4936832;29;20143;-78
2023/05/01 14:42:42;;;;;;;9.18;4.88;;;21.80;96.60;;;;;;4936820;29;20054;-77
2023/05/01 14:45:14;;;;;;;7.13;4.40;;;21.90;96.60;;;;;;4936958;29;20055;-77
2023/05/01 14:47:42;;;;;;;8.93;4.82;;;21.80;96.10;;;;;;4937000;29;20373;-77
2023/05/01 14:50:11;;;;;;;6.43;3.80;;;21.50;96.10;;;;;;4936608;29;20044;-78
2023/05/01 14:52:38;;;;;;;11.32;4.35;;;21.20;95.90;;;;;;4936613;29;20058;-78
2023/05/01 14:55:03;;;;;;;6.97;4.32;;;20.70;96.00;;;;;;4938065;29;20053;-77
2023/05/01 14:57:29;;;;;;;6.90;4.00;;;20.60;96.70;;;;;;4936828;29;20046;-77
2023/05/01 14:59:55;;;;;;;6.40;4.20;;;20.70;96.90;;;;;;4937243;29;20560;-80
2023/05/01 15:02:20;;;;;;;7.78;4.72;;;20.60;96.40;;;;;;4937583;29;20499;-76
2023/05/01 15:04:46;;;;;;;8.70;5.15;;;20.70;96.50;;;;;;4937950;29;20446;-77
2023/05/01 15:07:12;;;;;;;7.90;4.88;;;20.30;97.10;;;;;;4936296;29;20118;-78
2023/05/01 15:09:41;;;;;;;9.57;4.50;;;20.10;97.60;;;;;;4936952;29;20048;-77
2023/05/01 15:12:08;;;;;;;8.68;4.63;;;19.90;98.10;;;;;;4936262;29;20452;-76
2023/05/01 15:14:34;;;;;;;7.50;4.60;;;20.20;98.00;;;;;;4936130;29;20051;-79
2023/05/01 15:17:00;;;;;;;6.70;4.32;;;20.40;97.90;;;;;;4936353;29;20066;-78
2023/05/01 15:19:25;;;;;;;6.82;4.13;;;20.40;96.60;;;;;;4936292;29;20048;-78
2023/05/01 15:21:51;;;;;;;7.93;4.05;;;20.60;97.10;;;;;;4936075;29;20523;-77
2023/05/01 15:24:18;;;;;;;7.30;4.32;;;20.60;95.90;;;;;;4937186;29;20567;-78
2023/05/01 15:26:44;;;;;;;7.20;3.72;;;20.60;96.20;;;;;;4937213;29;20102;-77
2023/05/01 15:29:10;;;;;;;7.90;4.65;;;20.60;95.40;;;;;;4935790;29;20047;-78
2023/05/01 15:31:36;;;;;;;6.55;3.90;;;20.60;95.60;;;;;;4937322;29;20047;-77
2023/05/01 15:34:02;;;;;;;5.97;3.45;;;20.70;95.40;;;;;;4937443;29;20040;-77
2023/05/01 15:36:27;;;;;;;6.32;3.85;;;20.60;95.70;;;;;;4935753;29;20039;-76
2023/05/01 15:38:53;;;;;;;8.20;3.90;;;20.40;95.20;;;;;;4935775;29;20385;-77
2023/05/01 15:41:20;;;;;;;8.18;4.38;;;20.20;95.50;;;;;;4936266;29;20095;-77
2023/05/01 15:43:45;;;;;;;8.25;4.47;;;20.00;95.50;;;;;;4935450;29;20055;-79
2023/05/01 15:46:11;;;;;;;8.60;5.35;;;20.00;96.30;;;;;;4935558;29;20428;-76
2023/05/01 15:48:37;;;;;;;8.68;5.47;;;19.80;96.80;;;;;;4936006;29;20400;-76